Time;durP1;ratioP1;P1;durP2;ratioP2;P2;SDS_P1;SDS_P2;PMS_P1;PMS_P2;Temp;Humidity;BMP_temperature;BMP_pressure;BME280_temperature;BME280_humidity;BME280_pressure;Samples;Min_cycle;Max_cycle;Signal;HPM_P1;HPM_P2
2022/12/10 00:06:05;;;;;;;40.83;31.17;;;;;6.30;97708.00;;;;16728797;28;20303;-48
2022/12/10 00:14:09;;;;;;;42.23;29.30;;;;;6.20;97703.00;;;;16752887;28;20608;-49
2022/12/10 00:22:11;;;;;;;41.10;30.47;;;;;6.10;97710.00;;;;16752471;28;20195;-49
2022/12/10 00:30:15;;;;;;;37.97;27.57;;;;;5.50;97706.00;;;;16694316;28;20230;-49
2022/12/10 00:38:18;;;;;;;41.93;29.93;;;;;5.40;97705.00;;;;16651030;28;20305;-46
2022/12/10 00:46:22;;;;;;;39.87;28.13;;;;;5.60;97711.00;;;;16659505;28;20341;-47
2022/12/10 00:54:24;;;;;;;36.67;26.77;;;;;5.40;97713.00;;;;16674717;28;20309;-50
2022/12/10 01:02:28;;;;;;;38.77;29.33;;;;;5.70;97715.00;;;;16698027;28;20201;-49
2022/12/10 01:10:31;;;;;;;40.70;29.10;;;;;5.30;97732.00;;;;16747634;28;20316;-47
2022/12/10 01:18:35;;;;;;;38.70;29.23;;;;;5.40;97728.00;;;;16720203;28;20313;-48
2022/12/10 01:26:38;;;;;;;41.90;29.40;;;;;5.40;97754.00;;;;16739807;28;20292;-49
2022/12/10 01:34:42;;;;;;;38.40;27.53;;;;;6.00;97751.00;;;;16735458;28;20227;-49
2022/12/10 01:42:44;;;;;;;37.47;26.80;;;;;5.20;97777.00;;;;16731852;28;20199;-49
2022/12/10 01:50:51;;;;;;;36.13;26.17;;;;;5.10;97788.00;;;;16731118;28;20227;-47
2022/12/10 01:58:56;;;;;;;36.30;25.70;;;;;5.40;97785.00;;;;16734353;28;20314;-49
2022/12/10 02:07:03;;;;;;;35.90;27.10;;;;;5.40;97776.00;;;;16745448;28;20348;-50
2022/12/10 02:15:09;;;;;;;39.10;29.03;;;;;5.30;97777.00;;;;16748002;28;20331;-49
2022/12/10 02:23:17;;;;;;;35.90;24.43;;;;;5.20;97778.00;;;;16698308;28;20195;-49
2022/12/10 02:31:24;;;;;;;35.20;26.60;;;;;5.20;97773.00;;;;16698355;28;20222;-49
2022/12/10 02:39:30;;;;;;;34.70;26.50;;;;;5.00;97761.00;;;;16672143;28;20607;-49
2022/12/10 02:47:36;;;;;;;32.07;26.17;;;;;5.40;97751.00;;;;16677430;28;20262;-50
2022/12/10 02:55:51;;;;;;;35.20;24.73;;;;;5.20;97753.00;;;;16676720;28;20232;-49
2022/12/10 03:03:59;;;;;;;37.50;26.93;;;;;6.30;97711.00;;;;16725448;28;20247;-49
2022/12/10 03:12:07;;;;;;;36.90;24.60;;;;;5.10;97743.00;;;;16745486;28;20235;-49
2022/12/10 03:20:14;;;;;;;30.70;23.43;;;;;5.30;97737.00;;;;16734318;28;20324;-49
2022/12/10 03:28:17;;;;;;;34.10;26.00;;;;;5.10;97737.00;;;;16733124;28;20225;-49
2022/12/10 03:36:22;;;;;;;34.77;25.33;;;;;5.70;97715.00;;;;16731176;28;20245;-46
2022/12/10 03:44:32;;;;;;;34.23;26.30;;;;;5.70;97715.00;;;;16754700;28;20215;-49
2022/12/10 03:52:36;;;;;;;33.53;25.40;;;;;5.20;97727.00;;;;16747967;28;20360;-49
2022/12/10 04:00:38;;;;;;;36.33;26.73;;;;;5.30;97735.00;;;;16735534;28;20220;-50
2022/12/10 04:08:42;;;;;;;32.10;24.17;;;;;5.20;97752.00;;;;16756426;28;20225;-49
2022/12/10 04:16:45;;;;;;;33.60;23.40;;;;;5.70;97751.00;;;;16751576;28;20241;-49
2022/12/10 04:33:08;;;;;;;33.17;24.83;;;;;5.30;97773.00;;;;16725800;28;20218;-48
2022/12/10 04:41:15;;;;;;;32.73;24.23;;;;;5.10;97785.00;;;;16760967;28;20196;-49
2022/12/10 04:49:17;;;;;;;30.37;23.07;;;;;5.10;97789.00;;;;16733792;28;20230;-49
2022/12/10 04:57:21;;;;;;;29.00;23.67;;;;;5.50;97790.00;;;;16737311;28;20259;-47
2022/12/10 05:05:24;;;;;;;36.33;24.27;;;;;5.20;97782.00;;;;16736578;28;20265;-50
2022/12/10 05:13:28;;;;;;;33.43;25.20;;;;;4.90;97786.00;;;;16761762;28;20688;-49
2022/12/10 05:29:48;;;;;;;33.03;25.20;;;;;6.00;97773.00;;;;16718485;28;20251;-50
2022/12/10 05:37:51;;;;;;;34.90;24.80;;;;;5.60;97797.00;;;;16712604;28;20212;-50
2022/12/10 05:45:55;;;;;;;33.57;25.73;;;;;5.80;97785.00;;;;16717761;28;20350;-50
2022/12/10 05:53:59;;;;;;;33.50;24.30;;;;;5.30;97801.00;;;;16722862;28;20276;-50
2022/12/10 06:02:02;;;;;;;32.10;24.33;;;;;5.30;97811.00;;;;16722806;28;20190;-49
2022/12/10 06:10:05;;;;;;;31.90;23.53;;;;;5.00;97819.00;;;;16709671;28;20219;-49
2022/12/10 06:18:09;;;;;;;30.07;22.27;;;;;4.50;97843.00;;;;16713239;28;20704;-49
2022/12/10 06:26:13;;;;;;;34.60;25.10;;;;;5.10;97833.00;;;;16718234;28;20226;-50
2022/12/10 06:34:17;;;;;;;33.60;24.23;;;;;4.90;97840.00;;;;16723696;28;20329;-50
2022/12/10 06:42:20;;;;;;;30.40;23.03;;;;;4.70;97846.00;;;;16722418;28;20216;-47
2022/12/10 06:50:24;;;;;;;34.13;25.80;;;;;4.90;97854.00;;;;16713735;28;20222;-49
2022/12/10 06:58:27;;;;;;;37.60;27.30;;;;;4.60;97864.00;;;;16713821;28;20301;-49
2022/12/10 07:06:32;;;;;;;33.80;24.87;;;;;4.80;97865.00;;;;16716445;28;20697;-50
2022/12/10 07:14:35;;;;;;;34.53;24.53;;;;;4.10;97863.00;;;;16714015;28;20253;-48
2022/12/10 07:22:39;;;;;;;34.93;26.07;;;;;4.60;97872.00;;;;16712833;28;20754;-49
2022/12/10 07:30:41;;;;;;;38.23;26.10;;;;;4.30;97876.00;;;;16697946;28;20225;-49
2022/12/10 07:38:46;;;;;;;35.80;25.87;;;;;4.40;97898.00;;;;16719683;28;20312;-48
2022/12/10 07:46:48;;;;;;;31.10;23.40;;;;;4.50;97885.00;;;;16712501;28;20222;-49
2022/12/10 07:54:52;;;;;;;34.67;25.73;;;;;4.40;97906.00;;;;16747573;28;20909;-49
2022/12/10 08:02:56;;;;;;;34.37;25.60;;;;;4.50;97909.00;;;;16724549;28;20195;-47
2022/12/10 08:11:02;;;;;;;31.73;23.50;;;;;4.40;97917.00;;;;16720450;28;20235;-51
2022/12/10 08:19:04;;;;;;;31.93;24.67;;;;;4.60;97922.00;;;;16725408;28;20221;-49
2022/12/10 08:27:08;;;;;;;35.10;25.70;;;;;5.10;97918.00;;;;16722384;28;20329;-48
2022/12/10 08:35:11;;;;;;;31.23;22.80;;;;;4.90;97916.00;;;;16707652;28;20329;-49
2022/12/10 08:43:15;;;;;;;32.10;23.70;;;;;4.90;97929.00;;;;16710672;28;20232;-48
2022/12/10 08:51:19;;;;;;;32.50;23.93;;;;;5.80;97915.00;;;;16701190;28;20217;-49
2022/12/10 08:59:23;;;;;;;37.90;23.47;;;;;5.50;97930.00;;;;16724961;28;20299;-48
2022/12/10 09:07:25;;;;;;;31.13;22.93;;;;;5.20;97943.00;;;;16724675;28;20211;-49
2022/12/10 09:15:29;;;;;;;32.43;23.70;;;;;5.50;97949.00;;;;16700696;28;20227;-47
2022/12/10 09:23:32;;;;;;;30.40;22.27;;;;;5.30;97958.00;;;;16702021;28;20218;-49
2022/12/10 09:31:35;;;;;;;28.47;22.03;;;;;5.30;97962.00;;;;16723362;28;20230;-49
2022/12/10 09:39:38;;;;;;;33.80;23.93;;;;;5.70;97956.00;;;;16740897;28;20576;-48
2022/12/10 09:47:47;;;;;;;32.73;26.30;;;;;5.50;97965.00;;;;16729061;28;20236;-48
2022/12/10 09:55:51;;;;;;;27.77;21.70;;;;;4.80;97977.00;;;;16699600;28;20730;-48
2022/12/10 10:03:55;;;;;;;41.90;23.97;;;;;5.00;97961.00;;;;16702390;28;20221;-49
2022/12/10 10:11:58;;;;;;;35.37;22.90;;;;;4.70;97971.00;;;;16701282;28;20923;-48
2022/12/10 10:20:02;;;;;;;34.57;24.23;;;;;5.20;97972.00;;;;16703377;28;20228;-49
2022/12/10 10:28:04;;;;;;;34.17;25.40;;;;;5.90;97960.00;;;;16708035;28;20238;-47
2022/12/10 10:36:09;;;;;;;29.30;21.90;;;;;5.20;97963.00;;;;16738539;28;20571;-49
2022/12/10 10:44:16;;;;;;;31.50;21.77;;;;;5.20;97957.00;;;;16746286;28;20985;-47
2022/12/10 10:52:20;;;;;;;28.23;20.77;;;;;5.50;97961.00;;;;16740051;28;20215;-50
2022/12/10 11:00:23;;;;;;;29.90;22.90;;;;;5.60;97971.00;;;;16745969;28;20631;-48
2022/12/10 11:08:30;;;;;;;32.27;22.93;;;;;5.50;97971.00;;;;16737494;28;20249;-48
2022/12/10 11:16:33;;;;;;;28.47;22.40;;;;;5.20;97986.00;;;;16742193;28;20307;-50
2022/12/10 11:24:36;;;;;;;37.20;25.00;;;;;5.30;97986.00;;;;16765119;28;20219;-49
2022/12/10 11:32:54;;;;;;;34.73;25.63;;;;;5.10;97996.00;;;;16743632;28;20682;-49
2022/12/10 11:41:04;;;;;;;31.50;23.53;;;;;5.30;97984.00;;;;16768750;28;20254;-47
2022/12/10 11:49:17;;;;;;;30.30;23.60;;;;;5.70;97983.00;;;;16755848;28;20218;-48
2022/12/10 11:57:31;;;;;;;31.70;23.30;;;;;5.10;97987.00;;;;16712260;28;20223;-49
2022/12/10 12:05:45;;;;;;;31.63;22.97;;;;;5.20;97994.00;;;;16709969;28;20354;-49
2022/12/10 12:13:54;;;;;;;38.97;29.40;;;;;5.40;97985.00;;;;16714306;28;20247;-48
2022/12/10 12:21:57;;;;;;;31.47;22.50;;;;;5.20;97983.00;;;;16728928;28;20196;-50
2022/12/10 12:30:05;;;;;;;30.83;22.13;;;;;5.60;98008.00;;;;16736836;28;20302;-49
2022/12/10 12:38:20;;;;;;;30.50;22.03;;;;;5.50;98003.00;;;;16740017;28;20271;-48
2022/12/10 12:46:31;;;;;;;28.60;20.50;;;;;5.30;98016.00;;;;16728204;28;20299;-48
2022/12/10 12:54:34;;;;;;;25.73;18.70;;;;;5.60;98016.00;;;;16715925;28;20797;-51
2022/12/10 13:02:56;;;;;;;21.33;18.33;;;;;6.20;98026.00;;;;16731277;28;20211;-49
2022/12/10 13:11:01;;;;;;;28.53;19.87;;;;;6.20;98038.00;;;;16738460;28;20794;-48
2022/12/10 13:19:28;;;;;;;25.90;19.70;;;;;6.40;98038.00;;;;16747569;28;20282;-49
2022/12/10 13:27:33;;;;;;;27.90;20.03;;;;;6.20;98036.00;;;;16744379;28;20225;-49
2022/12/10 13:35:49;;;;;;;25.83;19.03;;;;;6.20;98052.00;;;;16727435;28;20228;-47
2022/12/10 13:52:23;;;;;;;25.90;19.63;;;;;6.10;98068.00;;;;16751267;28;20689;-48
2022/12/10 14:00:32;;;;;;;27.23;18.53;;;;;5.90;98081.00;;;;16766164;28;20707;-49
2022/12/10 14:08:38;;;;;;;28.03;21.90;;;;;5.60;98098.00;;;;16758311;28;20321;-49
2022/12/10 14:16:42;;;;;;;29.03;20.80;;;;;4.90;98122.00;;;;16745523;28;20226;-49
2022/12/10 14:24:46;;;;;;;28.33;21.03;;;;;4.60;98118.00;;;;16732372;28;20305;-47
2022/12/10 14:32:49;;;;;;;33.50;21.33;;;;;4.70;98127.00;;;;16741044;28;20233;-49
2022/12/10 14:40:55;;;;;;;30.47;21.97;;;;;4.70;98137.00;;;;16758315;28;20347;-49
2022/12/10 14:48:57;;;;;;;35.37;23.47;;;;;4.80;98151.00;;;;16753514;28;20227;-49
2022/12/10 14:57:04;;;;;;;34.00;22.00;;;;;4.50;98170.00;;;;16756160;28;20696;-50
2022/12/10 15:05:12;;;;;;;28.73;21.33;;;;;4.30;98179.00;;;;16753203;28;20298;-48
2022/12/10 15:13:22;;;;;;;32.20;20.83;;;;;4.30;98186.00;;;;16765791;28;20223;-48
2022/12/10 15:21:26;;;;;;;27.13;19.83;;;;;4.30;98192.00;;;;16736937;28;20201;-50
2022/12/10 15:29:36;;;;;;;28.57;19.40;;;;;4.20;98187.00;;;;16724609;28;20676;-49
2022/12/10 15:37:40;;;;;;;32.00;20.20;;;;;4.20;98202.00;;;;16743106;28;20757;-49
2022/12/10 15:45:44;;;;;;;31.00;22.20;;;;;4.40;98213.00;;;;16704817;28;20211;-49
2022/12/10 15:53:47;;;;;;;27.53;19.90;;;;;4.50;98212.00;;;;16706238;28;20352;-50
2022/12/10 16:01:51;;;;;;;33.80;21.80;;;;;4.40;98213.00;;;;16708134;28;20203;-50
2022/12/10 16:09:53;;;;;;;30.43;22.40;;;;;4.20;98221.00;;;;16711744;28;20768;-49
2022/12/10 16:17:57;;;;;;;28.63;20.23;;;;;4.40;98227.00;;;;16725891;28;20597;-48
2022/12/10 16:26:00;;;;;;;24.33;18.43;;;;;4.30;98227.00;;;;16719732;28;20215;-50
2022/12/10 16:34:04;;;;;;;25.60;17.50;;;;;4.30;98230.00;;;;16729478;28;20554;-49
2022/12/10 16:42:09;;;;;;;23.77;18.30;;;;;4.30;98246.00;;;;16721682;28;20272;-49
2022/12/10 16:50:14;;;;;;;29.07;19.40;;;;;4.20;98257.00;;;;16702830;28;20233;-48
2022/12/10 16:58:17;;;;;;;26.23;19.10;;;;;4.10;98268.00;;;;16697619;28;20222;-49
2022/12/10 17:06:21;;;;;;;26.47;18.60;;;;;4.00;98266.00;;;;16719981;28;20221;-48
2022/12/10 17:14:26;;;;;;;28.00;20.43;;;;;4.40;98269.00;;;;16701652;28;20753;-49
2022/12/10 17:22:29;;;;;;;26.43;18.60;;;;;4.10;98282.00;;;;16725653;28;20191;-48
2022/12/10 17:30:32;;;;;;;28.57;19.07;;;;;4.00;98291.00;;;;16724860;28;20226;-49
2022/12/10 17:38:36;;;;;;;27.57;20.03;;;;;4.20;98284.00;;;;16750190;28;20263;-50
2022/12/10 17:46:39;;;;;;;22.37;16.87;;;;;3.90;98304.00;;;;16754408;28;20308;-49
2022/12/10 17:54:43;;;;;;;30.93;20.40;;;;;4.00;98307.00;;;;16734247;28;20882;-48
2022/12/10 18:02:46;;;;;;;22.10;15.90;;;;;4.00;98310.00;;;;16723836;28;20197;-49
2022/12/10 18:10:50;;;;;;;23.10;17.43;;;;;3.90;98317.00;;;;16755678;28;20217;-50
2022/12/10 18:18:53;;;;;;;26.90;19.87;;;;;3.90;98314.00;;;;16736235;28;20289;-49
2022/12/10 18:26:58;;;;;;;26.87;19.90;;;;;3.90;98314.00;;;;16724651;28;20612;-49
2022/12/10 18:35:00;;;;;;;28.70;20.33;;;;;4.00;98310.00;;;;16728421;28;20597;-48
2022/12/10 18:43:04;;;;;;;30.07;20.63;;;;;4.00;98307.00;;;;16735358;28;20186;-49
2022/12/10 18:51:07;;;;;;;31.50;20.57;;;;;4.10;98314.00;;;;16715965;28;20214;-49
2022/12/10 18:59:16;;;;;;;36.77;25.20;;;;;4.30;98311.00;;;;16714574;28;20214;-48
2022/12/10 19:07:19;;;;;;;30.43;23.30;;;;;4.80;98326.00;;;;16708739;28;20603;-49
2022/12/10 19:15:23;;;;;;;28.07;21.93;;;;;4.20;98332.00;;;;16713438;28;20222;-49
2022/12/10 19:23:25;;;;;;;29.70;21.30;;;;;4.00;98332.00;;;;16712508;28;20199;-48
2022/12/10 19:31:30;;;;;;;26.30;19.67;;;;;3.90;98332.00;;;;16708526;28;20214;-49
2022/12/10 19:39:34;;;;;;;25.27;19.83;;;;;3.90;98334.00;;;;16705130;28;20281;-49
2022/12/10 19:47:38;;;;;;;32.27;21.33;;;;;4.10;98335.00;;;;16711048;28;20215;-48
2022/12/10 19:55:41;;;;;;;29.10;20.10;;;;;4.20;98328.00;;;;16707601;28;20280;-50
2022/12/10 20:03:45;;;;;;;27.07;21.03;;;;;3.80;98323.00;;;;16710082;28;20215;-48
2022/12/10 20:11:48;;;;;;;27.80;20.10;;;;;3.80;98323.00;;;;16713774;28;20309;-51
2022/12/10 20:19:52;;;;;;;32.87;23.27;;;;;4.10;98335.00;;;;16718091;28;20219;-49
2022/12/10 20:27:55;;;;;;;30.90;21.03;;;;;3.90;98352.00;;;;16691983;28;20565;-49
2022/12/10 20:35:59;;;;;;;30.50;21.30;;;;;4.00;98348.00;;;;16710116;28;20292;-49
2022/12/10 20:44:02;;;;;;;28.40;19.50;;;;;3.60;98351.00;;;;16712889;28;20236;-49
2022/12/10 20:52:06;;;;;;;31.00;21.30;;;;;3.60;98360.00;;;;16722431;28;20320;-48
2022/12/10 21:00:15;;;;;;;29.40;21.73;;;;;3.80;98363.00;;;;16728113;28;20580;-48
2022/12/10 21:08:20;;;;;;;27.93;19.50;;;;;3.70;98357.00;;;;16735100;28;20275;-48
2022/12/10 21:16:24;;;;;;;32.73;24.30;;;;;3.60;98362.00;;;;16746608;28;20229;-49
2022/12/10 21:24:28;;;;;;;40.30;24.30;;;;;3.20;98356.00;;;;16717902;28;20217;-47
2022/12/10 21:32:31;;;;;;;26.83;17.70;;;;;3.10;98351.00;;;;16716811;28;20225;-47
2022/12/10 21:40:34;;;;;;;24.93;17.73;;;;;3.10;98359.00;;;;16734655;28;20717;-48
2022/12/10 21:48:37;;;;;;;25.83;18.43;;;;;3.20;98354.00;;;;16719286;28;20784;-48
2022/12/10 21:56:41;;;;;;;23.00;18.17;;;;;3.30;98341.00;;;;16705994;28;20304;-49
2022/12/10 22:04:43;;;;;;;24.60;17.63;;;;;3.50;98347.00;;;;16710741;28;20344;-50
2022/12/10 22:12:47;;;;;;;27.50;20.00;;;;;3.40;98344.00;;;;16748458;28;20248;-49
2022/12/10 22:20:57;;;;;;;25.07;19.20;;;;;3.50;98347.00;;;;16764435;28;20227;-48
2022/12/10 22:29:01;;;;;;;25.53;17.37;;;;;3.10;98350.00;;;;16753760;28;20221;-47
2022/12/10 22:37:03;;;;;;;21.10;16.37;;;;;3.00;98368.00;;;;16752125;28;20225;-49
2022/12/10 22:45:09;;;;;;;23.23;16.50;;;;;3.20;98357.00;;;;16775070;28;20221;-50
2022/12/10 22:53:11;;;;;;;21.97;14.93;;;;;3.20;98365.00;;;;16761614;28;20316;-49
2022/12/10 23:01:19;;;;;;;25.87;18.40;;;;;3.20;98358.00;;;;16730400;28;20194;-47
2022/12/10 23:09:22;;;;;;;21.23;15.77;;;;;3.00;98358.00;;;;16749219;28;20233;-48
2022/12/10 23:17:26;;;;;;;22.37;16.60;;;;;3.20;98351.00;;;;16754577;28;20219;-50
2022/12/10 23:25:29;;;;;;;23.10;17.77;;;;;3.10;98351.00;;;;16752842;28;20654;-48
2022/12/10 23:33:32;;;;;;;20.30;15.53;;;;;3.20;98353.00;;;;16760659;28;20309;-47
2022/12/10 23:41:35;;;;;;;25.10;17.40;;;;;3.00;98353.00;;;;16770230;28;20193;-45
2022/12/10 23:49:39;;;;;;;22.23;16.60;;;;;3.20;98358.00;;;;16754674;28;20267;-49
2022/12/10 23:57:41;;;;;;;23.80;16.73;;;;;2.50;98368.00;;;;16735778;28;20618;-46
